sensor_id;sensor_type;location;lat;lon;timestamp;pressure;altitude;pressure_sealevel;temperature;humidity
20043;BME280;10182;52.896;6.496;2022-07-29T00:04:38;101806.38;;;14.44;76.39
20043;BME280;10182;52.896;6.496;2022-07-29T00:09:40;101801.03;;;14.44;76.87
20043;BME280;10182;52.896;6.496;2022-07-29T00:14:43;101790.81;;;14.53;75.75
20043;BME280;10182;52.896;6.496;2022-07-29T00:19:45;101788.63;;;14.43;76.53
20043;BME280;10182;52.896;6.496;2022-07-29T00:24:47;101784.09;;;14.45;76.48
20043;BME280;10182;52.896;6.496;2022-07-29T00:29:50;101775.00;;;14.49;75.96
20043;BME280;10182;52.896;6.496;2022-07-29T00:34:52;101775.97;;;14.48;75.74
20043;BME280;10182;52.896;6.496;2022-07-29T00:40:11;101770.63;;;14.48;75.56
20043;BME280;10182;52.896;6.496;2022-07-29T00:45:16;101770.84;;;14.43;76.04
20043;BME280;10182;52.896;6.496;2022-07-29T00:50:18;101753.06;;;14.44;75.46
20043;BME280;10182;52.896;6.496;2022-07-29T00:55:20;101749.44;;;14.45;75.35
20043;BME280;10182;52.896;6.496;2022-07-29T01:00:25;101752.47;;;14.56;74.50
20043;BME280;10182;52.896;6.496;2022-07-29T01:05:27;101736.34;;;14.40;75.87
20043;BME280;10182;52.896;6.496;2022-07-29T01:10:30;101732.66;;;14.43;75.50
20043;BME280;10182;52.896;6.496;2022-07-29T01:15:34;101730.34;;;14.35;75.83
20043;BME280;10182;52.896;6.496;2022-07-29T01:20:57;101728.41;;;14.38;76.68
20043;BME280;10182;52.896;6.496;2022-07-29T01:26:19;101715.09;;;14.38;76.45
20043;BME280;10182;52.896;6.496;2022-07-29T01:31:29;101709.53;;;14.43;75.84
20043;BME280;10182;52.896;6.496;2022-07-29T01:36:35;101703.34;;;14.43;76.23
20043;BME280;10182;52.896;6.496;2022-07-29T01:41:41;101687.59;;;14.38;76.01
20043;BME280;10182;52.896;6.496;2022-07-29T01:46:54;101692.97;;;14.36;76.32
20043;BME280;10182;52.896;6.496;2022-07-29T01:51:59;101683.97;;;14.39;76.19
20043;BME280;10182;52.896;6.496;2022-07-29T01:57:03;101676.94;;;14.38;75.71
20043;BME280;10182;52.896;6.496;2022-07-29T02:02:08;101668.63;;;14.44;75.57
20043;BME280;10182;52.896;6.496;2022-07-29T02:07:15;101666.81;;;14.45;75.23
20043;BME280;10182;52.896;6.496;2022-07-29T02:12:18;101661.63;;;14.42;75.57
20043;BME280;10182;52.896;6.496;2022-07-29T02:17:24;101664.38;;;14.40;74.86
20043;BME280;10182;52.896;6.496;2022-07-29T02:22:30;101655.81;;;14.33;74.64
20043;BME280;10182;52.896;6.496;2022-07-29T02:27:33;101657.63;;;14.33;74.70
20043;BME280;10182;52.896;6.496;2022-07-29T02:32:39;101644.72;;;14.43;74.38
20043;BME280;10182;52.896;6.496;2022-07-29T02:37:43;101649.41;;;14.37;74.76
20043;BME280;10182;52.896;6.496;2022-07-29T02:43:07;101650.13;;;14.41;74.21
20043;BME280;10182;52.896;6.496;2022-07-29T02:48:14;101647.44;;;14.41;74.86
20043;BME280;10182;52.896;6.496;2022-07-29T02:53:18;101636.94;;;14.38;74.76
20043;BME280;10182;52.896;6.496;2022-07-29T02:58:24;101642.03;;;14.43;74.04
20043;BME280;10182;52.896;6.496;2022-07-29T03:03:33;101646.28;;;14.47;73.74
20043;BME280;10182;52.896;6.496;2022-07-29T03:08:36;101643.88;;;14.42;74.25
20043;BME280;10182;52.896;6.496;2022-07-29T03:13:38;101644.72;;;14.43;74.12
20043;BME280;10182;52.896;6.496;2022-07-29T03:18:42;101636.78;;;14.41;74.65
20043;BME280;10182;52.896;6.496;2022-07-29T03:23:43;101641.88;;;14.46;74.00
20043;BME280;10182;52.896;6.496;2022-07-29T03:28:45;101644.22;;;14.34;74.21
20043;BME280;10182;52.896;6.496;2022-07-29T03:33:48;101637.53;;;14.26;75.03
20043;BME280;10182;52.896;6.496;2022-07-29T03:38:50;101640.22;;;14.26;75.24
20043;BME280;10182;52.896;6.496;2022-07-29T03:43:53;101634.00;;;14.25;75.04
20043;BME280;10182;52.896;6.496;2022-07-29T03:48:59;101637.66;;;14.22;75.47
20043;BME280;10182;52.896;6.496;2022-07-29T03:54:01;101639.25;;;14.27;74.83
20043;BME280;10182;52.896;6.496;2022-07-29T03:59:03;101638.75;;;14.18;76.00
20043;BME280;10182;52.896;6.496;2022-07-29T04:04:07;101642.06;;;14.24;75.30
20043;BME280;10182;52.896;6.496;2022-07-29T04:09:09;101637.59;;;14.24;74.88
20043;BME280;10182;52.896;6.496;2022-07-29T04:14:11;101637.09;;;14.16;75.88
20043;BME280;10182;52.896;6.496;2022-07-29T04:19:14;101625.59;;;14.15;75.53
20043;BME280;10182;52.896;6.496;2022-07-29T04:24:15;101617.66;;;14.14;76.32
20043;BME280;10182;52.896;6.496;2022-07-29T04:29:17;101627.16;;;14.19;75.28
20043;BME280;10182;52.896;6.496;2022-07-29T04:34:21;101632.84;;;14.12;76.49
20043;BME280;10182;52.896;6.496;2022-07-29T04:39:23;101633.72;;;14.12;76.40
20043;BME280;10182;52.896;6.496;2022-07-29T04:44:24;101634.75;;;14.10;76.33
20043;BME280;10182;52.896;6.496;2022-07-29T04:49:28;101636.31;;;14.14;76.02
20043;BME280;10182;52.896;6.496;2022-07-29T04:54:30;101631.91;;;14.13;76.34
20043;BME280;10182;52.896;6.496;2022-07-29T04:59:31;101632.28;;;14.05;77.13
20043;BME280;10182;52.896;6.496;2022-07-29T05:04:34;101622.28;;;14.10;77.20
20043;BME280;10182;52.896;6.496;2022-07-29T05:09:36;101625.44;;;13.99;77.07
20043;BME280;10182;52.896;6.496;2022-07-29T05:14:38;101617.66;;;14.14;76.81
20043;BME280;10182;52.896;6.496;2022-07-29T05:19:41;101606.44;;;14.07;77.50
20043;BME280;10182;52.896;6.496;2022-07-29T05:24:42;101615.22;;;14.09;77.27
20043;BME280;10182;52.896;6.496;2022-07-29T05:29:44;101623.28;;;14.08;77.77
20043;BME280;10182;52.896;6.496;2022-07-29T05:34:47;101634.00;;;14.06;78.02
20043;BME280;10182;52.896;6.496;2022-07-29T05:39:49;101629.34;;;14.11;77.87
20043;BME280;10182;52.896;6.496;2022-07-29T05:44:50;101638.69;;;14.20;77.19
20043;BME280;10182;52.896;6.496;2022-07-29T05:49:53;101642.50;;;14.14;77.54
20043;BME280;10182;52.896;6.496;2022-07-29T05:54:55;101656.19;;;14.26;77.53
20043;BME280;10182;52.896;6.496;2022-07-29T05:59:57;101655.03;;;14.31;77.30
20043;BME280;10182;52.896;6.496;2022-07-29T06:05:00;101659.91;;;14.41;77.23
20043;BME280;10182;52.896;6.496;2022-07-29T06:10:02;101656.16;;;14.45;78.01
20043;BME280;10182;52.896;6.496;2022-07-29T06:15:05;101646.06;;;14.51;77.38
20043;BME280;10182;52.896;6.496;2022-07-29T06:20:09;101650.84;;;14.62;76.35
20043;BME280;10182;52.896;6.496;2022-07-29T06:25:11;101649.44;;;14.74;77.00
20043;BME280;10182;52.896;6.496;2022-07-29T06:30:13;101647.00;;;14.87;76.39
20043;BME280;10182;52.896;6.496;2022-07-29T06:35:16;101648.19;;;14.99;75.79
20043;BME280;10182;52.896;6.496;2022-07-29T06:40:18;101655.56;;;15.11;74.67
20043;BME280;10182;52.896;6.496;2022-07-29T06:45:37;101651.03;;;15.13;74.21
20043;BME280;10182;52.896;6.496;2022-07-29T06:50:42;101651.31;;;15.07;74.32
20043;BME280;10182;52.896;6.496;2022-07-29T06:55:44;101654.06;;;15.05;74.69
20043;BME280;10182;52.896;6.496;2022-07-29T07:00:46;101651.41;;;15.05;75.69
20043;BME280;10182;52.896;6.496;2022-07-29T07:05:49;101657.50;;;15.07;75.11
20043;BME280;10182;52.896;6.496;2022-07-29T07:10:51;101672.13;;;15.18;74.61
20043;BME280;10182;52.896;6.496;2022-07-29T07:15:53;101680.84;;;15.21;74.56
20043;BME280;10182;52.896;6.496;2022-07-29T07:20:58;101683.44;;;15.23;74.14
20043;BME280;10182;52.896;6.496;2022-07-29T07:25:59;101684.75;;;15.32;74.34
20043;BME280;10182;52.896;6.496;2022-07-29T07:31:01;101692.53;;;15.36;74.27
20043;BME280;10182;52.896;6.496;2022-07-29T07:36:04;101684.28;;;15.41;74.14
20043;BME280;10182;52.896;6.496;2022-07-29T07:41:07;101672.88;;;15.37;73.96
20043;BME280;10182;52.896;6.496;2022-07-29T07:46:08;101680.50;;;15.45;73.91
20043;BME280;10182;52.896;6.496;2022-07-29T07:51:12;101673.91;;;15.35;73.37
20043;BME280;10182;52.896;6.496;2022-07-29T07:56:13;101668.91;;;15.46;72.38
20043;BME280;10182;52.896;6.496;2022-07-29T08:01:16;101668.25;;;15.74;73.09
20043;BME280;10182;52.896;6.496;2022-07-29T08:06:21;101660.59;;;15.86;72.06
20043;BME280;10182;52.896;6.496;2022-07-29T08:11:24;101652.84;;;15.97;71.59
20043;BME280;10182;52.896;6.496;2022-07-29T08:16:25;101655.25;;;16.18;70.99
20043;BME280;10182;52.896;6.496;2022-07-29T08:21:28;101652.31;;;16.38;70.40
20043;BME280;10182;52.896;6.496;2022-07-29T08:26:30;101659.75;;;16.49;70.16
20043;BME280;10182;52.896;6.496;2022-07-29T08:31:32;101658.22;;;16.75;68.93
20043;BME280;10182;52.896;6.496;2022-07-29T08:36:35;101662.44;;;16.80;69.15
20043;BME280;10182;52.896;6.496;2022-07-29T08:41:36;101659.53;;;16.84;69.24
20043;BME280;10182;52.896;6.496;2022-07-29T08:46:38;101664.78;;;16.86;68.66
20043;BME280;10182;52.896;6.496;2022-07-29T08:51:43;101659.88;;;16.78;68.00
20043;BME280;10182;52.896;6.496;2022-07-29T08:56:48;101654.31;;;16.81;68.22
20043;BME280;10182;52.896;6.496;2022-07-29T09:01:52;101648.75;;;16.70;69.20
20043;BME280;10182;52.896;6.496;2022-07-29T09:06:57;101653.38;;;16.82;69.64
20043;BME280;10182;52.896;6.496;2022-07-29T09:12:00;101638.56;;;16.92;70.25
20043;BME280;10182;52.896;6.496;2022-07-29T09:17:04;101638.75;;;17.04;68.99
20043;BME280;10182;52.896;6.496;2022-07-29T09:22:07;101637.31;;;16.98;68.76
20043;BME280;10182;52.896;6.496;2022-07-29T09:27:20;101642.59;;;16.84;68.94
20043;BME280;10182;52.896;6.496;2022-07-29T09:32:22;101656.16;;;16.81;70.39
20043;BME280;10182;52.896;6.496;2022-07-29T09:37:29;101652.88;;;16.75;70.29
20043;BME280;10182;52.896;6.496;2022-07-29T09:42:30;101657.59;;;16.86;71.11
20043;BME280;10182;52.896;6.496;2022-07-29T09:47:41;101652.53;;;16.82;71.99
20043;BME280;10182;52.896;6.496;2022-07-29T09:52:48;101637.50;;;16.95;71.25
20043;BME280;10182;52.896;6.496;2022-07-29T09:57:49;101640.75;;;17.00;71.60
20043;BME280;10182;52.896;6.496;2022-07-29T10:02:51;101624.19;;;17.24;71.94
20043;BME280;10182;52.896;6.496;2022-07-29T10:07:55;101645.72;;;17.37;70.24
20043;BME280;10182;52.896;6.496;2022-07-29T10:13:00;101658.84;;;17.41;68.56
20043;BME280;10182;52.896;6.496;2022-07-29T10:18:02;101666.31;;;17.65;68.31
20043;BME280;10182;52.896;6.496;2022-07-29T10:23:05;101666.38;;;17.78;66.71
20043;BME280;10182;52.896;6.496;2022-07-29T10:28:07;101659.22;;;17.93;66.96
20043;BME280;10182;52.896;6.496;2022-07-29T10:33:17;101658.00;;;18.40;65.48
20043;BME280;10182;52.896;6.496;2022-07-29T10:38:41;101648.78;;;18.99;64.70
20043;BME280;10182;52.896;6.496;2022-07-29T10:43:46;101641.81;;;19.09;62.86
20043;BME280;10182;52.896;6.496;2022-07-29T10:49:09;101641.69;;;18.98;64.24
20043;BME280;10182;52.896;6.496;2022-07-29T10:54:13;101631.94;;;19.23;62.65
20043;BME280;10182;52.896;6.496;2022-07-29T10:59:25;101628.94;;;19.66;64.89
20043;BME280;10182;52.896;6.496;2022-07-29T11:04:58;101631.31;;;19.58;61.17
20043;BME280;10182;52.896;6.496;2022-07-29T11:10:21;101642.13;;;19.69;61.11
20043;BME280;10182;52.896;6.496;2022-07-29T11:15:23;101643.50;;;20.01;60.85
20043;BME280;10182;52.896;6.496;2022-07-29T11:20:32;101640.66;;;20.52;60.36
20043;BME280;10182;52.896;6.496;2022-07-29T11:25:35;101642.09;;;20.45;58.66
20043;BME280;10182;52.896;6.496;2022-07-29T11:30:51;101646.47;;;20.46;58.93
20043;BME280;10182;52.896;6.496;2022-07-29T11:36:07;101641.63;;;20.51;59.00
20043;BME280;10182;52.896;6.496;2022-07-29T11:41:24;101640.13;;;20.47;59.70
20043;BME280;10182;52.896;6.496;2022-07-29T11:46:43;101640.41;;;21.04;57.39
20043;BME280;10182;52.896;6.496;2022-07-29T11:51:50;101630.53;;;21.38;56.68
20043;BME280;10182;52.896;6.496;2022-07-29T11:56:54;101634.59;;;21.44;56.01
20043;BME280;10182;52.896;6.496;2022-07-29T12:01:56;101628.50;;;21.64;55.17
20043;BME280;10182;52.896;6.496;2022-07-29T12:06:58;101624.09;;;21.75;55.64
20043;BME280;10182;52.896;6.496;2022-07-29T12:12:01;101629.66;;;21.38;57.29
20043;BME280;10182;52.896;6.496;2022-07-29T12:17:03;101628.69;;;21.27;56.63
20043;BME280;10182;52.896;6.496;2022-07-29T12:22:04;101622.09;;;21.32;56.70
20043;BME280;10182;52.896;6.496;2022-07-29T12:27:07;101618.41;;;21.44;56.05
20043;BME280;10182;52.896;6.496;2022-07-29T12:32:09;101612.06;;;21.68;55.81
20043;BME280;10182;52.896;6.496;2022-07-29T12:37:11;101613.19;;;21.54;55.03
20043;BME280;10182;52.896;6.496;2022-07-29T12:42:15;101610.13;;;21.70;54.28
20043;BME280;10182;52.896;6.496;2022-07-29T12:47:19;101622.88;;;21.56;54.40
20043;BME280;10182;52.896;6.496;2022-07-29T12:52:28;101620.88;;;21.36;52.97
20043;BME280;10182;52.896;6.496;2022-07-29T12:57:35;101613.78;;;21.80;53.54
20043;BME280;10182;52.896;6.496;2022-07-29T13:02:54;101614.38;;;22.06;52.92
20043;BME280;10182;52.896;6.496;2022-07-29T13:08:09;101604.94;;;22.01;54.10
20043;BME280;10182;52.896;6.496;2022-07-29T13:13:13;101609.22;;;22.58;52.91
20043;BME280;10182;52.896;6.496;2022-07-29T13:18:28;101607.56;;;22.67;52.03
20043;BME280;10182;52.896;6.496;2022-07-29T13:23:30;101602.38;;;22.54;53.49
20043;BME280;10182;52.896;6.496;2022-07-29T13:28:33;101603.38;;;22.30;51.90
20043;BME280;10182;52.896;6.496;2022-07-29T13:33:35;101597.84;;;22.32;52.93
20043;BME280;10182;52.896;6.496;2022-07-29T13:38:37;101601.84;;;22.60;53.24
20043;BME280;10182;52.896;6.496;2022-07-29T13:43:40;101592.09;;;22.90;52.97
20043;BME280;10182;52.896;6.496;2022-07-29T13:48:41;101596.72;;;23.42;51.96
20043;BME280;10182;52.896;6.496;2022-07-29T13:53:43;101598.75;;;23.90;49.91
20043;BME280;10182;52.896;6.496;2022-07-29T13:58:46;101607.19;;;24.16;46.76
20043;BME280;10182;52.896;6.496;2022-07-29T14:03:48;101597.09;;;24.19;48.32
20043;BME280;10182;52.896;6.496;2022-07-29T14:08:49;101593.56;;;24.38;45.16
20043;BME280;10182;52.896;6.496;2022-07-29T14:13:52;101599.72;;;24.59;44.63
20043;BME280;10182;52.896;6.496;2022-07-29T14:18:54;101596.72;;;24.62;46.32
20043;BME280;10182;52.896;6.496;2022-07-29T14:23:56;101596.31;;;24.77;46.67
20043;BME280;10182;52.896;6.496;2022-07-29T14:28:59;101579.75;;;24.90;44.52
20043;BME280;10182;52.896;6.496;2022-07-29T14:34:00;101587.16;;;24.97;46.32
20043;BME280;10182;52.896;6.496;2022-07-29T14:39:03;101575.88;;;24.92;44.04
20043;BME280;10182;52.896;6.496;2022-07-29T14:44:06;101584.31;;;24.89;46.14
20043;BME280;10182;52.896;6.496;2022-07-29T14:49:08;101590.41;;;24.52;45.56
20043;BME280;10182;52.896;6.496;2022-07-29T14:54:10;101594.78;;;23.94;45.84
20043;BME280;10182;52.896;6.496;2022-07-29T14:59:13;101588.31;;;24.36;46.06
20043;BME280;10182;52.896;6.496;2022-07-29T15:04:14;101593.28;;;24.50;43.04
20043;BME280;10182;52.896;6.496;2022-07-29T15:09:16;101584.47;;;24.68;44.00
20043;BME280;10182;52.896;6.496;2022-07-29T15:14:19;101580.59;;;24.90;43.56
20043;BME280;10182;52.896;6.496;2022-07-29T15:19:21;101585.97;;;25.00;43.57
20043;BME280;10182;52.896;6.496;2022-07-29T15:24:23;101591.41;;;25.00;44.21
20043;BME280;10182;52.896;6.496;2022-07-29T15:29:26;101578.44;;;24.94;45.82
20043;BME280;10182;52.896;6.496;2022-07-29T15:34:27;101581.31;;;24.92;46.98
20043;BME280;10182;52.896;6.496;2022-07-29T15:39:29;101581.03;;;24.86;45.46
20043;BME280;10182;52.896;6.496;2022-07-29T15:44:32;101586.03;;;24.71;44.85
20043;BME280;10182;52.896;6.496;2022-07-29T15:49:36;101576.19;;;24.70;43.50
20043;BME280;10182;52.896;6.496;2022-07-29T15:54:39;101572.63;;;24.30;43.44
20043;BME280;10182;52.896;6.496;2022-07-29T15:59:42;101574.63;;;24.38;44.16
20043;BME280;10182;52.896;6.496;2022-07-29T16:04:44;101572.75;;;24.28;44.74
20043;BME280;10182;52.896;6.496;2022-07-29T16:09:46;101568.16;;;23.90;46.07
20043;BME280;10182;52.896;6.496;2022-07-29T16:14:49;101565.66;;;23.77;45.62
20043;BME280;10182;52.896;6.496;2022-07-29T16:19:51;101569.59;;;23.94;46.10
20043;BME280;10182;52.896;6.496;2022-07-29T16:24:53;101560.34;;;23.96;47.21
20043;BME280;10182;52.896;6.496;2022-07-29T16:29:56;101563.06;;;24.36;44.95
20043;BME280;10182;52.896;6.496;2022-07-29T16:34:58;101561.63;;;26.03;41.80
20043;BME280;10182;52.896;6.496;2022-07-29T16:40:02;101556.56;;;27.07;38.99
20043;BME280;10182;52.896;6.496;2022-07-29T16:45:06;101561.03;;;25.54;42.05
20043;BME280;10182;52.896;6.496;2022-07-29T16:50:08;101552.94;;;24.57;43.24
20043;BME280;10182;52.896;6.496;2022-07-29T16:55:10;101551.78;;;23.91;45.24
20043;BME280;10182;52.896;6.496;2022-07-29T17:00:14;101551.13;;;23.68;44.38
20043;BME280;10182;52.896;6.496;2022-07-29T17:05:16;101548.94;;;23.52;45.33
20043;BME280;10182;52.896;6.496;2022-07-29T17:10:18;101559.31;;;23.47;44.89
20043;BME280;10182;52.896;6.496;2022-07-29T17:15:21;101556.88;;;23.44;44.51
20043;BME280;10182;52.896;6.496;2022-07-29T17:20:23;101556.50;;;23.27;44.93
20043;BME280;10182;52.896;6.496;2022-07-29T17:25:25;101560.63;;;23.22;44.66
20043;BME280;10182;52.896;6.496;2022-07-29T17:30:29;101558.75;;;23.22;45.46
20043;BME280;10182;52.896;6.496;2022-07-29T17:35:30;101564.38;;;23.09;46.04
20043;BME280;10182;52.896;6.496;2022-07-29T17:40:49;101562.06;;;23.05;46.82
20043;BME280;10182;52.896;6.496;2022-07-29T17:45:52;101573.13;;;23.02;46.75
20043;BME280;10182;52.896;6.496;2022-07-29T17:50:55;101575.63;;;22.93;46.52
20043;BME280;10182;52.896;6.496;2022-07-29T17:55:57;101569.47;;;22.81;46.65
20043;BME280;10182;52.896;6.496;2022-07-29T18:01:00;101580.16;;;22.72;47.38
20043;BME280;10182;52.896;6.496;2022-07-29T18:06:02;101570.31;;;22.61;47.92
20043;BME280;10182;52.896;6.496;2022-07-29T18:11:04;101574.00;;;22.60;48.42
20043;BME280;10182;52.896;6.496;2022-07-29T18:16:07;101573.53;;;22.55;48.94
20043;BME280;10182;52.896;6.496;2022-07-29T18:21:09;101574.44;;;22.44;49.48
20043;BME280;10182;52.896;6.496;2022-07-29T18:26:11;101579.84;;;22.33;50.22
20043;BME280;10182;52.896;6.496;2022-07-29T18:31:16;101577.91;;;22.23;50.92
20043;BME280;10182;52.896;6.496;2022-07-29T18:36:18;101567.53;;;22.07;52.26
20043;BME280;10182;52.896;6.496;2022-07-29T18:41:20;101572.69;;;21.99;56.66
20043;BME280;10182;52.896;6.496;2022-07-29T18:46:23;101570.06;;;21.76;55.69
20043;BME280;10182;52.896;6.496;2022-07-29T18:51:24;101579.63;;;21.58;57.66
20043;BME280;10182;52.896;6.496;2022-07-29T18:56:26;101583.00;;;21.37;58.86
20043;BME280;10182;52.896;6.496;2022-07-29T19:01:31;101588.41;;;21.15;61.54
20043;BME280;10182;52.896;6.496;2022-07-29T19:06:32;101589.44;;;20.89;60.79
20043;BME280;10182;52.896;6.496;2022-07-29T19:11:34;101602.47;;;20.71;63.82
20043;BME280;10182;52.896;6.496;2022-07-29T19:16:37;101598.81;;;20.48;62.07
20043;BME280;10182;52.896;6.496;2022-07-29T19:21:39;101602.13;;;20.27;64.86
20043;BME280;10182;52.896;6.496;2022-07-29T19:26:41;101608.44;;;20.02;67.20
20043;BME280;10182;52.896;6.496;2022-07-29T19:31:47;101609.59;;;19.74;67.92
20043;BME280;10182;52.896;6.496;2022-07-29T19:36:48;101609.94;;;19.56;68.55
20043;BME280;10182;52.896;6.496;2022-07-29T19:41:50;101608.97;;;19.32;69.91
20043;BME280;10182;52.896;6.496;2022-07-29T19:46:55;101611.94;;;19.01;72.02
20043;BME280;10182;52.896;6.496;2022-07-29T19:51:59;101616.16;;;18.78;73.06
20043;BME280;10182;52.896;6.496;2022-07-29T19:57:01;101620.53;;;18.66;74.42
20043;BME280;10182;52.896;6.496;2022-07-29T20:02:04;101621.25;;;18.55;75.99
20043;BME280;10182;52.896;6.496;2022-07-29T20:07:07;101628.25;;;18.31;74.11
20043;BME280;10182;52.896;6.496;2022-07-29T20:12:09;101627.06;;;18.07;75.23
20043;BME280;10182;52.896;6.496;2022-07-29T20:17:12;101631.59;;;17.92;75.41
20043;BME280;10182;52.896;6.496;2022-07-29T20:22:14;101625.91;;;17.68;77.01
20043;BME280;10182;52.896;6.496;2022-07-29T20:27:16;101627.94;;;17.65;79.49
20043;BME280;10182;52.896;6.496;2022-07-29T20:32:19;101635.31;;;17.61;79.96
20043;BME280;10182;52.896;6.496;2022-07-29T20:37:21;101638.19;;;17.58;79.84
20043;BME280;10182;52.896;6.496;2022-07-29T20:42:23;101637.19;;;17.59;80.47
20043;BME280;10182;52.896;6.496;2022-07-29T20:47:26;101629.94;;;17.61;79.95
20043;BME280;10182;52.896;6.496;2022-07-29T20:52:28;101634.16;;;17.65;81.33
20043;BME280;10182;52.896;6.496;2022-07-29T20:57:30;101633.59;;;17.46;80.92
20043;BME280;10182;52.896;6.496;2022-07-29T21:02:34;101635.38;;;17.45;79.01
20043;BME280;10182;52.896;6.496;2022-07-29T21:07:36;101630.63;;;17.50;78.88
20043;BME280;10182;52.896;6.496;2022-07-29T21:12:38;101637.00;;;17.48;79.11
20043;BME280;10182;52.896;6.496;2022-07-29T21:17:41;101644.91;;;17.20;80.10
20043;BME280;10182;52.896;6.496;2022-07-29T21:22:46;101653.66;;;16.94;80.99
20043;BME280;10182;52.896;6.496;2022-07-29T21:27:48;101654.16;;;16.84;82.74
20043;BME280;10182;52.896;6.496;2022-07-29T21:33:09;101656.06;;;16.82;83.30
20043;BME280;10182;52.896;6.496;2022-07-29T21:38:11;101661.41;;;16.82;84.41
20043;BME280;10182;52.896;6.496;2022-07-29T21:43:15;101658.69;;;16.68;83.31
20043;BME280;10182;52.896;6.496;2022-07-29T21:48:20;101654.56;;;16.46;83.81
20043;BME280;10182;52.896;6.496;2022-07-29T21:53:22;101650.34;;;16.42;84.94
20043;BME280;10182;52.896;6.496;2022-07-29T21:58:24;101654.81;;;16.41;85.43
20043;BME280;10182;52.896;6.496;2022-07-29T22:03:27;101651.28;;;16.25;84.33
20043;BME280;10182;52.896;6.496;2022-07-29T22:08:28;101653.38;;;16.04;85.31
20043;BME280;10182;52.896;6.496;2022-07-29T22:13:30;101663.25;;;16.02;85.64
20043;BME280;10182;52.896;6.496;2022-07-29T22:18:33;101659.03;;;15.98;85.79
20043;BME280;10182;52.896;6.496;2022-07-29T22:23:35;101653.19;;;15.91;86.83
20043;BME280;10182;52.896;6.496;2022-07-29T22:28:37;101654.03;;;15.92;87.36
20043;BME280;10182;52.896;6.496;2022-07-29T22:33:40;101654.03;;;15.92;87.17
20043;BME280;10182;52.896;6.496;2022-07-29T22:38:42;101655.06;;;15.89;87.66
20043;BME280;10182;52.896;6.496;2022-07-29T22:43:44;101646.66;;;15.79;87.93
20043;BME280;10182;52.896;6.496;2022-07-29T22:48:47;101646.31;;;15.69;88.69
20043;BME280;10182;52.896;6.496;2022-07-29T22:53:48;101644.50;;;15.70;89.37
20043;BME280;10182;52.896;6.496;2022-07-29T22:58:50;101651.72;;;15.68;88.83
20043;BME280;10182;52.896;6.496;2022-07-29T23:03:56;101644.84;;;15.64;89.10
20043;BME280;10182;52.896;6.496;2022-07-29T23:08:57;101649.56;;;15.59;89.63
20043;BME280;10182;52.896;6.496;2022-07-29T23:13:59;101643.13;;;15.45;89.78
20043;BME280;10182;52.896;6.496;2022-07-29T23:19:02;101630.19;;;15.37;90.47
20043;BME280;10182;52.896;6.496;2022-07-29T23:24:04;101634.13;;;15.30;88.97
20043;BME280;10182;52.896;6.496;2022-07-29T23:29:06;101623.53;;;15.11;89.59
20043;BME280;10182;52.896;6.496;2022-07-29T23:34:09;101630.31;;;15.01;90.62
20043;BME280;10182;52.896;6.496;2022-07-29T23:39:11;101629.44;;;15.00;91.90
20043;BME280;10182;52.896;6.496;2022-07-29T23:44:12;101625.66;;;15.04;91.37
20043;BME280;10182;52.896;6.496;2022-07-29T23:49:15;101623.72;;;14.91;90.58
20043;BME280;10182;52.896;6.496;2022-07-29T23:54:17;101621.03;;;14.73;91.06
20043;BME280;10182;52.896;6.496;2022-07-29T23:59:18;101610.09;;;14.60;91.23
